createdAt,value
2023-05-10T00:00:24.764Z,99413.88
2023-05-10T00:01:26.734Z,99420.22
2023-05-10T00:02:29.683Z,99434.44
2023-05-10T00:03:31.987Z,99421.53
2023-05-10T00:04:35.066Z,99425.34
2023-05-10T00:05:36.816Z,99424.28
2023-05-10T00:06:39.541Z,99422.59
2023-05-10T00:07:41.348Z,99428.56
2023-05-10T00:08:44.060Z,99426.91
2023-05-10T00:09:45.740Z,99430.25
2023-05-10T00:10:48.422Z,99416.72
2023-05-10T00:11:50.201Z,99428.44
2023-05-10T00:12:52.879Z,99428.56
2023-05-10T00:13:54.588Z,99429.06
2023-05-10T00:14:58.655Z,99431.94
2023-05-10T00:16:00.434Z,99433.84
2023-05-10T00:17:03.319Z,99424.63
2023-05-10T00:18:05.103Z,99430.72
2023-05-10T00:19:07.885Z,99426.91
2023-05-10T00:20:11.353Z,99429.78
2023-05-10T00:21:14.042Z,99432.03
2023-05-10T00:22:15.771Z,99427.38
2023-05-10T00:23:18.433Z,99438.63
2023-05-10T00:24:20.347Z,99431.44
2023-05-10T00:25:23.074Z,99440.06
2023-05-10T00:26:24.805Z,99434.44
2023-05-10T00:27:27.606Z,99437.53
2023-05-10T00:28:29.650Z,99429.06
2023-05-10T00:29:32.780Z,99429.28
2023-05-10T00:30:35.924Z,99435.63
2023-05-10T00:31:38.668Z,99433.72
2023-05-10T00:32:40.422Z,99434.94
2023-05-10T00:33:43.141Z,99423.69
2023-05-10T00:34:44.880Z,99431.47
2023-05-10T00:35:47.579Z,99433.59
2023-05-10T00:36:49.225Z,99433.00
2023-05-10T00:37:51.872Z,99434.69
2023-05-10T00:38:53.655Z,99428.09
2023-05-10T00:39:56.348Z,99424.28
2023-05-10T00:40:58.052Z,99439.09
2023-05-10T00:42:01.832Z,99431.09
2023-05-10T00:43:04.017Z,99439.47
2023-05-10T00:44:06.678Z,99433.72
2023-05-10T00:45:09.150Z,99439.22
2023-05-10T00:46:13.316Z,99443.41
2023-05-10T00:47:15.203Z,99441.13
2023-05-10T00:48:17.961Z,99445.66
2023-05-10T00:49:20.185Z,99444.25
2023-05-10T00:50:23.098Z,99442.78
2023-05-10T00:51:25.175Z,99446.72
2023-05-10T00:52:28.036Z,99442.78
2023-05-10T00:53:30.039Z,99444.91
2023-05-10T00:54:32.787Z,99449.75
2023-05-10T00:55:34.458Z,99440.66
2023-05-10T00:56:37.186Z,99448.41
2023-05-10T00:57:39.125Z,99449.59
2023-05-10T00:58:42.098Z,99455.53
2023-05-10T00:59:43.917Z,99450.88
2023-05-10T01:00:48.434Z,99446.03
2023-05-10T01:01:52.661Z,99447.94
2023-05-10T01:02:55.803Z,99446.59
2023-05-10T01:03:57.973Z,99450.69
2023-05-10T01:05:01.399Z,99451.09
2023-05-10T01:06:04.231Z,99449.44
2023-05-10T01:07:07.219Z,99447.53
2023-05-10T01:08:09.752Z,99448.78
2023-05-10T01:09:12.914Z,99450.19
2023-05-10T01:10:14.971Z,99448.50
2023-05-10T01:11:17.909Z,99447.22
2023-05-10T01:12:19.775Z,99449.13
2023-05-10T01:13:32.209Z,99443.97
2023-05-10T01:14:34.550Z,99446.03
2023-05-10T01:15:38.080Z,99446.16
2023-05-10T01:16:41.796Z,99443.75
2023-05-10T01:17:47.115Z,99432.53
2023-05-10T01:18:49.722Z,99442.69
2023-05-10T01:19:52.515Z,99444.81
2023-05-10T01:21:00.411Z,99439.94
2023-05-10T01:22:07.993Z,99441.38
2023-05-10T01:23:25.007Z,99443.28
2023-05-10T01:24:52.289Z,99447.72
2023-05-10T01:26:09.056Z,99449.97
2023-05-10T01:27:22.010Z,99450.25
2023-05-10T01:28:40.545Z,99457.16
2023-05-10T01:30:17.398Z,99462.94
2023-05-10T01:31:35.640Z,99457.78
2023-05-10T01:32:44.939Z,99452.28
2023-05-10T01:33:52.428Z,99456.72
2023-05-10T01:34:58.902Z,99455.38
2023-05-10T01:36:08.586Z,99450.72
2023-05-10T01:37:13.161Z,99457.91
2023-05-10T01:38:32.401Z,99462.22
2023-05-10T01:39:40.685Z,99461.59
2023-05-10T01:40:50.012Z,99459.47
2023-05-10T01:41:55.766Z,99463.28
2023-05-10T01:43:03.092Z,99465.78
2023-05-10T01:44:13.096Z,99458.16
2023-05-10T01:45:20.802Z,99465.34
2023-05-10T01:46:27.801Z,99464.50
2023-05-10T01:47:36.349Z,99463.66
2023-05-10T01:48:48.667Z,99464.72
2023-05-10T01:49:52.612Z,99466.63
2023-05-10T01:50:54.774Z,99472.97
2023-05-10T01:52:09.202Z,99470.84
2023-05-10T01:53:11.929Z,99467.88
2023-05-10T01:54:15.664Z,99466.53
2023-05-10T01:55:18.035Z,99474.56
2023-05-10T01:56:23.473Z,99470.47
2023-05-10T01:57:27.618Z,99467.50
2023-05-10T01:58:33.981Z,99479.09
2023-05-10T01:59:37.507Z,99470.84
2023-05-10T02:00:42.782Z,99465.34
2023-05-10T02:01:46.221Z,99468.94
2023-05-10T02:02:50.846Z,99467.25
2023-05-10T02:03:54.398Z,99472.53
2023-05-10T02:04:57.747Z,99473.16
2023-05-10T02:06:00.343Z,99481.63
2023-05-10T02:07:03.017Z,99479.38
2023-05-10T02:08:07.740Z,99475.75
2023-05-10T02:09:11.667Z,99479.38
2023-05-10T02:10:14.661Z,99473.00
2023-05-10T02:11:19.574Z,99475.75
2023-05-10T02:12:22.112Z,99473.59
2023-05-10T02:13:25.872Z,99473.59
2023-05-10T02:14:28.260Z,99484.59
2023-05-10T02:15:32.150Z,99480.78
2023-05-10T02:16:33.932Z,99479.94
2023-05-10T02:17:37.634Z,99481.84
2023-05-10T02:18:41.374Z,99472.75
2023-05-10T02:19:46.342Z,99487.38
2023-05-10T02:20:48.291Z,99485.22
2023-05-10T02:21:52.215Z,99485.84
2023-05-10T02:22:55.514Z,99489.41
2023-05-10T02:23:59.390Z,99488.59
2023-05-10T02:25:01.730Z,99493.00
2023-05-10T02:26:04.949Z,99488.59
2023-05-10T02:27:07.489Z,99497.66
2023-05-10T02:28:10.324Z,99490.03
2023-05-10T02:29:13.274Z,99485.34
2023-05-10T02:30:16.651Z,99499.97
2023-05-10T02:31:19.279Z,99497.44
2023-05-10T02:32:23.111Z,99493.00
2023-05-10T02:33:25.496Z,99491.94
2023-05-10T02:34:29.557Z,99495.53
2023-05-10T02:35:34.362Z,99491.94
2023-05-10T02:36:37.724Z,99496.59
2023-05-10T02:37:39.818Z,99494.91
2023-05-10T02:38:42.689Z,99494.91
2023-05-10T02:39:46.481Z,99487.28
2023-05-10T02:40:49.957Z,99496.38
2023-05-10T02:41:52.824Z,99489.19
2023-05-10T02:42:57.299Z,99493.84
2023-05-10T02:44:01.292Z,99497.44
2023-05-10T02:45:07.701Z,99495.75
2023-05-10T02:46:09.556Z,99495.75
2023-05-10T02:47:12.368Z,99493.84
2023-05-10T02:48:14.147Z,99499.13
2023-05-10T02:49:17.027Z,99495.03
2023-05-10T02:50:19.155Z,99491.44
2023-05-10T02:51:26.386Z,99498.41
2023-05-10T02:52:30.371Z,99498.41
2023-05-10T02:53:34.202Z,99493.97
2023-05-10T02:54:42.552Z,99493.97
2023-05-10T02:55:48.582Z,99493.13
2023-05-10T02:56:54.847Z,99489.78
2023-05-10T02:58:00.321Z,99495.31
2023-05-10T02:59:02.995Z,99486.78
2023-05-10T03:00:05.962Z,99489.53
2023-05-10T03:01:09.702Z,99489.53
2023-05-10T03:02:11.582Z,99486.78
2023-05-10T03:03:14.360Z,99490.63
2023-05-10T03:04:16.232Z,99484.50
2023-05-10T03:05:18.959Z,99491.09
2023-05-10T03:06:22.053Z,99485.59
2023-05-10T03:07:24.848Z,99499.34
2023-05-10T03:08:26.733Z,99497.44
2023-05-10T03:09:29.499Z,99491.34
2023-05-10T03:10:32.060Z,99495.16
2023-05-10T03:11:42.242Z,99494.09
2023-05-10T03:12:54.257Z,99493.25
2023-05-10T03:14:07.950Z,99493.00
2023-05-10T03:15:13.840Z,99495.75
2023-05-10T03:16:18.139Z,99495.53
2023-05-10T03:17:23.935Z,99488.13
2023-05-10T03:18:34.327Z,99486.66
2023-05-10T03:19:42.240Z,99490.03
2023-05-10T03:20:51.972Z,99493.00
2023-05-10T03:21:57.060Z,99498.50
2023-05-10T03:23:04.480Z,99494.69
2023-05-10T03:24:08.780Z,99500.19
2023-05-10T03:25:12.972Z,99507.03
2023-05-10T03:26:19.112Z,99499.84
2023-05-10T03:27:22.509Z,99503.66
2023-05-10T03:28:26.343Z,99500.69
2023-05-10T03:29:29.878Z,99507.88
2023-05-10T03:30:31.935Z,99505.34
2023-05-10T03:31:35.002Z,99512.75
2023-05-10T03:32:37.174Z,99512.13
2023-05-10T03:33:48.253Z,99508.53
2023-05-10T03:34:49.941Z,99509.66
2023-05-10T03:35:52.573Z,99509.66
2023-05-10T03:36:56.831Z,99516.81
2023-05-10T03:37:58.548Z,99514.66
2023-05-10T03:39:01.243Z,99516.13
2023-05-10T03:40:03.483Z,99508.94
2023-05-10T03:41:06.386Z,99520.53
2023-05-10T03:42:08.109Z,99510.63
2023-05-10T03:43:10.864Z,99515.66
2023-05-10T03:44:12.649Z,99509.28
2023-05-10T03:45:15.316Z,99519.25
2023-05-10T03:46:17.126Z,99511.81
2023-05-10T03:47:19.877Z,99523.69
2023-05-10T03:48:21.597Z,99507.97
2023-05-10T03:49:24.296Z,99513.03
2023-05-10T03:50:27.180Z,99517.91
2023-05-10T03:51:30.019Z,99522.34
2023-05-10T03:52:33.131Z,99513.03
2023-05-10T03:53:36.623Z,99520.81
2023-05-10T03:54:38.321Z,99518.41
2023-05-10T03:55:41.074Z,99513.88
2023-05-10T03:56:43.107Z,99504.53
2023-05-10T03:57:45.785Z,99509.81
2023-05-10T03:58:47.570Z,99518.06
2023-05-10T03:59:50.287Z,99512.56
2023-05-10T04:00:52.256Z,99519.75
2023-05-10T04:01:54.909Z,99510.66
2023-05-10T04:02:56.738Z,99508.97
2023-05-10T04:03:59.584Z,99509.81
2023-05-10T04:05:02.898Z,99515.31
2023-05-10T04:06:06.575Z,99513.88
2023-05-10T04:07:08.281Z,99516.41
2023-05-10T04:08:12.359Z,99520.47
2023-05-10T04:09:14.552Z,99521.53
2023-05-10T04:10:18.960Z,99513.28
2023-05-10T04:11:22.851Z,99516.88
2023-05-10T04:12:25.602Z,99517.72
2023-05-10T04:13:27.666Z,99517.72
2023-05-10T04:14:30.426Z,99521.53
2023-05-10T04:15:32.111Z,99520.47
2023-05-10T04:16:34.807Z,99518.91
2023-05-10T04:17:39.116Z,99518.06
2023-05-10T04:18:41.893Z,99516.75
2023-05-10T04:19:43.601Z,99514.25
2023-05-10T04:20:46.307Z,99518.44
2023-05-10T04:21:48.010Z,99523.94
2023-05-10T04:22:50.690Z,99525.00
2023-05-10T04:23:53.902Z,99527.75
2023-05-10T04:24:56.612Z,99523.94
2023-05-10T04:26:01.934Z,99529.81
2023-05-10T04:27:04.805Z,99522.66
2023-05-10T04:28:06.516Z,99522.66
2023-05-10T04:29:09.269Z,99523.47
2023-05-10T04:30:12.019Z,99523.22
2023-05-10T04:31:14.763Z,99526.22
2023-05-10T04:32:18.135Z,99532.34
2023-05-10T04:33:20.793Z,99529.59
2023-05-10T04:34:22.506Z,99525.97
2023-05-10T04:35:25.152Z,99532.94
2023-05-10T04:36:26.847Z,99530.78
2023-05-10T04:37:29.606Z,99534.72
2023-05-10T04:38:31.445Z,99537.50
2023-05-10T04:39:36.164Z,99538.09
2023-05-10T04:40:37.923Z,99536.66
2023-05-10T04:41:40.676Z,99544.09
2023-05-10T04:42:42.515Z,99543.47
2023-05-10T04:43:45.223Z,99536.28
2023-05-10T04:44:46.922Z,99539.03
2023-05-10T04:45:49.566Z,99537.34
2023-05-10T04:46:51.242Z,99545.41
2023-05-10T04:47:53.968Z,99552.59
2023-05-10T04:48:55.746Z,99543.25
2023-05-10T04:49:58.466Z,99545.75
2023-05-10T04:51:00.282Z,99546.59
2023-05-10T04:52:02.937Z,99550.53
2023-05-10T04:53:04.675Z,99546.72
2023-05-10T04:54:07.435Z,99545.03
2023-05-10T04:55:10.869Z,99546.94
2023-05-10T04:56:13.620Z,99546.94
2023-05-10T04:57:15.406Z,99555.00
2023-05-10T04:58:18.130Z,99559.44
2023-05-10T04:59:19.873Z,99553.91
2023-05-10T05:00:23.013Z,99552.47
2023-05-10T05:01:24.785Z,99557.97
2023-05-10T05:02:27.560Z,99556.06
2023-05-10T05:03:29.428Z,99557.16
2023-05-10T05:04:32.598Z,99556.91
2023-05-10T05:05:34.323Z,99558.47
2023-05-10T05:06:36.987Z,99555.69
2023-05-10T05:07:39.291Z,99564.81
2023-05-10T05:08:42.033Z,99561.81
2023-05-10T05:09:43.807Z,99560.16
2023-05-10T05:10:48.215Z,99562.66
2023-05-10T05:11:49.966Z,99564.94
2023-05-10T05:12:52.718Z,99564.72
2023-05-10T05:13:54.550Z,99558.59
2023-05-10T05:14:57.185Z,99563.47
2023-05-10T05:16:01.623Z,99570.94
2023-05-10T05:17:04.927Z,99565.44
2023-05-10T05:18:06.667Z,99564.81
2023-05-10T05:19:09.432Z,99578.81
2023-05-10T05:20:11.933Z,99574.16
2023-05-10T05:21:18.320Z,99576.91
2023-05-10T05:22:20.489Z,99571.88
2023-05-10T05:23:25.772Z,99573.56
2023-05-10T05:24:27.601Z,99574.16
2023-05-10T05:25:30.322Z,99565.03
2023-05-10T05:26:33.368Z,99569.47
2023-05-10T05:27:36.404Z,99573.69
2023-05-10T05:28:38.444Z,99572.38
2023-05-10T05:29:41.144Z,99570.69
2023-05-10T05:30:42.931Z,99576.81
2023-05-10T05:31:45.782Z,99565.56
2023-05-10T05:32:48.247Z,99571.88
2023-05-10T05:33:50.997Z,99572.72
2023-05-10T05:34:52.699Z,99574.41
2023-05-10T05:35:55.386Z,99576.66
2023-05-10T05:36:57.116Z,99573.91
2023-05-10T05:37:59.821Z,99563.72
2023-05-10T05:39:01.600Z,99571.78
2023-05-10T05:40:04.493Z,99576.00
2023-05-10T05:41:06.265Z,99581.25
2023-05-10T05:42:10.749Z,99567.22
2023-05-10T05:43:12.667Z,99578.75
2023-05-10T05:44:15.432Z,99584.84
2023-05-10T05:45:17.502Z,99581.00
2023-05-10T05:46:20.344Z,99585.22
2023-05-10T05:47:22.210Z,99579.25
2023-05-10T05:48:24.986Z,99584.78
2023-05-10T05:49:26.726Z,99585.63
2023-05-10T05:50:29.478Z,99585.13
2023-05-10T05:51:32.053Z,99579.59
2023-05-10T05:52:34.907Z,99585.97
2023-05-10T05:53:37.705Z,99581.88
2023-05-10T05:54:39.627Z,99579.50
2023-05-10T05:55:42.309Z,99592.56
2023-05-10T05:56:45.202Z,99583.44
2023-05-10T05:57:49.307Z,99588.03
2023-05-10T05:58:52.122Z,99577.91
2023-05-10T05:59:53.986Z,99584.66
2023-05-10T06:00:56.985Z,99588.59
2023-05-10T06:02:01.706Z,99592.56
2023-05-10T06:03:07.426Z,99588.00
2023-05-10T06:04:09.246Z,99594.09
2023-05-10T06:05:11.967Z,99599.38
2023-05-10T06:06:13.713Z,99592.78
2023-05-10T06:07:16.466Z,99592.19
2023-05-10T06:08:18.328Z,99592.91
2023-05-10T06:09:21.488Z,99594.38
2023-05-10T06:10:23.990Z,99594.81
2023-05-10T06:11:26.895Z,99592.06
2023-05-10T06:12:28.919Z,99596.28
2023-05-10T06:13:36.128Z,99596.63
2023-05-10T06:14:37.897Z,99602.50
2023-05-10T06:15:40.706Z,99597.81
2023-05-10T06:16:42.478Z,99593.38
2023-05-10T06:17:45.358Z,99601.06
2023-05-10T06:18:48.091Z,99607.66
2023-05-10T06:19:49.766Z,99610.53
2023-05-10T06:20:52.746Z,99605.88
2023-05-10T06:21:54.429Z,99610.88
2023-05-10T06:22:57.242Z,99614.84
2023-05-10T06:24:00.148Z,99613.16
2023-05-10T06:25:03.064Z,99616.41
2023-05-10T06:26:05.982Z,99622.25
2023-05-10T06:27:07.856Z,99614.94
2023-05-10T06:28:10.617Z,99623.00
2023-05-10T06:29:16.198Z,99609.69
2023-05-10T06:30:17.975Z,99622.75
2023-05-10T06:31:20.700Z,99619.28
2023-05-10T06:32:22.420Z,99629.47
2023-05-10T06:33:25.123Z,99630.03
2023-05-10T06:34:26.902Z,99627.91
2023-05-10T06:35:30.206Z,99630.44
2023-05-10T06:36:32.874Z,99629.09
2023-05-10T06:37:35.179Z,99634.59
2023-05-10T06:38:38.246Z,99630.53
2023-05-10T06:39:40.046Z,99634.94
2023-05-10T06:40:43.541Z,99630.88
2023-05-10T06:41:46.470Z,99633.88
2023-05-10T06:42:49.179Z,99637.72
2023-05-10T06:43:50.894Z,99637.38
2023-05-10T06:44:55.048Z,99631.25
2023-05-10T06:45:57.942Z,99632.56
2023-05-10T06:46:59.944Z,99631.50
2023-05-10T06:48:02.708Z,99637.84
2023-05-10T06:49:05.456Z,99631.50
2023-05-10T06:50:09.422Z,99632.06
2023-05-10T06:51:11.305Z,99634.00
2023-05-10T06:52:14.069Z,99637.25
2023-05-10T06:53:16.846Z,99630.44
2023-05-10T06:54:19.602Z,99637.84
2023-05-10T06:55:22.604Z,99637.38
2023-05-10T06:56:24.346Z,99629.09
2023-05-10T06:57:31.751Z,99634.09
2023-05-10T06:58:34.950Z,99635.31
2023-05-10T06:59:37.472Z,99640.38
2023-05-10T07:00:43.721Z,99639.88
2023-05-10T07:01:46.599Z,99647.09
2023-05-10T07:02:48.383Z,99647.94
2023-05-10T07:03:51.651Z,99643.97
2023-05-10T07:04:53.532Z,99646.94
2023-05-10T07:05:56.324Z,99645.41
2023-05-10T07:06:58.639Z,99637.72
2023-05-10T07:08:01.936Z,99647.59
2023-05-10T07:09:03.691Z,99641.56
2023-05-10T07:10:08.022Z,99641.91
2023-05-10T07:11:09.830Z,99641.44
2023-05-10T07:12:14.673Z,99636.50
2023-05-10T07:13:18.311Z,99640.72
2023-05-10T07:14:21.066Z,99640.81
2023-05-10T07:15:24.042Z,99642.25
2023-05-10T07:16:27.329Z,99651.38
2023-05-10T07:17:30.110Z,99647.88
2023-05-10T07:18:32.067Z,99645.44
2023-05-10T07:19:34.998Z,99654.69
2023-05-10T07:20:37.673Z,99653.94
2023-05-10T07:21:41.356Z,99653.09
2023-05-10T07:22:44.089Z,99651.78
2023-05-10T07:23:46.771Z,99650.34
2023-05-10T07:24:49.518Z,99648.19
2023-05-10T07:25:53.137Z,99644.91
2023-05-10T07:26:55.956Z,99648.03
2023-05-10T07:27:57.766Z,99652.22
2023-05-10T07:29:00.457Z,99644.78
2023-05-10T07:30:05.832Z,99643.94
2023-05-10T07:31:08.654Z,99648.97
2023-05-10T07:32:12.769Z,99646.56
2023-05-10T07:33:16.785Z,99652.19
2023-05-10T07:34:18.693Z,99652.19
2023-05-10T07:35:21.509Z,99660.22
2023-05-10T07:36:23.306Z,99651.44
2023-05-10T07:37:26.184Z,99662.50
2023-05-10T07:38:28.383Z,99655.38
2023-05-10T07:39:31.165Z,99662.09
2023-05-10T07:40:33.190Z,99655.59
2023-05-10T07:41:36.213Z,99651.13
2023-05-10T07:42:38.086Z,99657.84
2023-05-10T07:43:40.977Z,99667.59
2023-05-10T07:44:43.150Z,99664.44
2023-05-10T07:45:45.959Z,99662.66
2023-05-10T07:46:48.099Z,99664.34
2023-05-10T07:47:52.373Z,99670.28
2023-05-10T07:48:54.276Z,99662.09
2023-05-10T07:49:57.053Z,99672.16
2023-05-10T07:50:58.846Z,99661.19
2023-05-10T07:52:02.071Z,99661.84
2023-05-10T07:53:04.833Z,99668.41
2023-05-10T07:54:06.971Z,99665.19
2023-05-10T07:55:11.104Z,99667.56
2023-05-10T07:56:25.977Z,99664.59
2023-05-10T07:57:28.738Z,99671.59
2023-05-10T07:58:30.467Z,99663.19
2023-05-10T07:59:33.457Z,99669.06
2023-05-10T08:00:35.263Z,99665.81
2023-05-10T08:01:38.274Z,99669.38
2023-05-10T08:02:40.210Z,99670.22
2023-05-10T08:03:44.445Z,99664.69
2023-05-10T08:04:46.567Z,99665.06
2023-05-10T08:05:49.528Z,99665.84
2023-05-10T08:06:52.242Z,99666.47
2023-05-10T08:07:55.082Z,99675.00
2023-05-10T08:08:56.957Z,99671.38
2023-05-10T08:09:59.731Z,99673.00
2023-05-10T08:11:01.555Z,99662.78
2023-05-10T08:12:04.442Z,99671.34
2023-05-10T08:13:06.288Z,99670.59
2023-05-10T08:14:09.166Z,99671.38
2023-05-10T08:15:11.706Z,99680.53
2023-05-10T08:16:14.521Z,99678.13
2023-05-10T08:17:19.682Z,99679.78
2023-05-10T08:18:23.027Z,99671.47
2023-05-10T08:19:27.315Z,99678.69
2023-05-10T08:20:29.241Z,99670.91
2023-05-10T08:21:32.274Z,99676.94
2023-05-10T08:22:34.285Z,99670.31
2023-05-10T08:23:37.047Z,99680.06
2023-05-10T08:24:39.495Z,99683.06
2023-05-10T08:25:42.369Z,99685.00
2023-05-10T08:26:44.166Z,99682.75
2023-05-10T08:27:46.929Z,99672.75
2023-05-10T08:28:48.775Z,99675.75
2023-05-10T08:29:51.777Z,99679.03
2023-05-10T08:30:54.629Z,99681.81
2023-05-10T08:31:56.438Z,99682.34
2023-05-10T08:32:59.289Z,99685.34
2023-05-10T08:34:01.361Z,99678.13
2023-05-10T08:35:05.988Z,99683.09
2023-05-10T08:36:10.509Z,99682.72
2023-05-10T08:37:14.461Z,99685.16
2023-05-10T08:38:17.568Z,99678.56
2023-05-10T08:39:29.318Z,99681.06
2023-05-10T08:40:32.479Z,99676.28
2023-05-10T08:41:36.900Z,99692.19
2023-05-10T08:42:41.480Z,99683.78
2023-05-10T08:43:47.173Z,99689.00
2023-05-10T08:44:50.389Z,99685.72
2023-05-10T08:45:56.111Z,99688.97
2023-05-10T08:46:58.778Z,99688.38
2023-05-10T08:48:03.731Z,99683.91
2023-05-10T08:49:08.937Z,99686.66
2023-05-10T08:50:13.915Z,99681.41
2023-05-10T08:51:17.474Z,99682.94
2023-05-10T08:52:20.834Z,99691.19
2023-05-10T08:53:28.808Z,99699.47
2023-05-10T08:54:32.268Z,99698.53
2023-05-10T08:55:34.489Z,99698.75
2023-05-10T08:56:37.317Z,99703.22
2023-05-10T08:57:40.329Z,99697.09
2023-05-10T08:58:42.624Z,99705.97
2023-05-10T08:59:45.421Z,99699.59
2023-05-10T09:00:51.849Z,99710.16
2023-05-10T09:01:54.561Z,99702.25
2023-05-10T09:02:58.004Z,99706.19
2023-05-10T09:04:01.297Z,99701.50
2023-05-10T09:05:04.692Z,99709.88
2023-05-10T09:06:09.078Z,99704.72
2023-05-10T09:07:11.772Z,99709.75
2023-05-10T09:08:17.354Z,99708.44
2023-05-10T09:09:19.760Z,99715.97
2023-05-10T09:10:22.765Z,99712.94
2023-05-10T09:11:25.299Z,99712.69
2023-05-10T09:12:28.007Z,99716.81
2023-05-10T09:13:30.881Z,99718.13
2023-05-10T09:14:35.846Z,99717.81
2023-05-10T09:15:37.569Z,99726.34
2023-05-10T09:16:40.389Z,99717.94
2023-05-10T09:17:42.415Z,99723.00
2023-05-10T09:18:45.195Z,99719.63
2023-05-10T09:19:46.888Z,99728.19
2023-05-10T09:20:50.866Z,99728.44
2023-05-10T09:21:53.965Z,99719.53
2023-05-10T09:22:56.692Z,99720.63
2023-05-10T09:23:59.461Z,99721.09
2023-05-10T09:25:09.562Z,99725.13
2023-05-10T09:26:11.263Z,99726.69
2023-05-10T09:27:13.964Z,99726.09
2023-05-10T09:28:15.738Z,99730.53
2023-05-10T09:29:18.551Z,99723.09
2023-05-10T09:30:26.829Z,99722.25
2023-05-10T09:31:48.370Z,99729.44
2023-05-10T09:32:52.131Z,99725.34
2023-05-10T09:33:55.350Z,99724.88
2023-05-10T09:34:57.022Z,99724.97
2023-05-10T09:36:09.210Z,99720.13
2023-05-10T09:37:12.352Z,99716.97
2023-05-10T09:38:15.078Z,99716.03
2023-05-10T09:39:17.051Z,99713.97
2023-05-10T09:40:21.202Z,99712.94
2023-05-10T09:41:23.799Z,99717.50
2023-05-10T09:42:26.539Z,99709.28
2023-05-10T09:43:29.289Z,99713.47
2023-05-10T09:44:32.792Z,99714.06
2023-05-10T09:45:38.483Z,99717.69
2023-05-10T09:46:40.781Z,99707.47
2023-05-10T09:47:43.566Z,99720.44
2023-05-10T09:48:47.778Z,99725.13
2023-05-10T09:49:51.251Z,99727.91
2023-05-10T09:50:59.296Z,99735.84
2023-05-10T09:52:03.812Z,99731.91
2023-05-10T09:53:07.953Z,99731.22
2023-05-10T09:54:11.653Z,99728.53
2023-05-10T09:55:14.542Z,99726.56
2023-05-10T09:56:34.252Z,99744.28
2023-05-10T09:57:37.106Z,99741.75
2023-05-10T09:58:39.126Z,99733.66
2023-05-10T09:59:44.712Z,99747.97
2023-05-10T10:00:52.271Z,99741.59
2023-05-10T10:01:58.145Z,99736.06
2023-05-10T10:03:01.107Z,99743.53
2023-05-10T10:04:05.708Z,99750.03
2023-05-10T10:05:09.228Z,99746.69
2023-05-10T10:06:26.417Z,99748.50
2023-05-10T10:07:32.636Z,99744.47
2023-05-10T10:08:35.911Z,99750.47
2023-05-10T10:09:38.601Z,99745.88
2023-05-10T10:10:41.565Z,99749.38
2023-05-10T10:11:44.669Z,99743.94
2023-05-10T10:12:50.277Z,99744.91
2023-05-10T10:13:52.066Z,99746.69
2023-05-10T10:14:55.592Z,99749.06
2023-05-10T10:15:57.376Z,99748.69
2023-05-10T10:18:08.929Z,99750.66
2023-05-10T10:19:11.430Z,99751.09
2023-05-10T10:20:14.905Z,99743.50
2023-05-10T10:21:17.982Z,99746.94
2023-05-10T10:22:19.699Z,99743.78
2023-05-10T10:23:22.421Z,99740.84
2023-05-10T10:24:25.651Z,99737.06
2023-05-10T10:25:28.368Z,99738.84
2023-05-10T10:26:30.172Z,99736.72
2023-05-10T10:27:39.930Z,99739.09
2023-05-10T10:28:47.135Z,99735.41
2023-05-10T10:29:58.270Z,99745.25
2023-05-10T10:31:03.521Z,99745.03
2023-05-10T10:32:11.631Z,99742.34
2023-05-10T10:33:51.572Z,99746.88
2023-05-10T10:34:54.342Z,99748.03
2023-05-10T10:35:57.853Z,99754.75
2023-05-10T10:37:06.298Z,99748.72
2023-05-10T10:38:10.090Z,99751.81
2023-05-10T10:39:13.698Z,99750.44
2023-05-10T10:40:27.434Z,99749.59
2023-05-10T10:41:32.434Z,99741.50
2023-05-10T10:42:47.976Z,99746.19
2023-05-10T10:43:49.748Z,99747.19
2023-05-10T10:45:15.433Z,99749.72
